createdAt,value
2019-01-03T00:00:43.629Z,2.47
2019-01-03T00:03:32.089Z,2.38
2019-01-03T00:08:59.038Z,2.34
2019-01-03T00:11:48.014Z,2.34
2019-01-03T00:14:36.490Z,2.34
2019-01-03T00:20:20.449Z,2.34
2019-01-03T00:23:09.196Z,2.34
2019-01-03T00:25:57.797Z,2.33
2019-01-03T00:28:47.625Z,2.31
2019-01-03T00:31:36.094Z,2.29
2019-01-03T00:37:14.764Z,2.29
2019-01-03T00:40:03.223Z,2.28
2019-01-03T00:42:51.948Z,2.29
2019-01-03T00:45:40.693Z,2.29
2019-01-03T01:00:19.471Z,2.31
2019-01-03T01:03:07.948Z,2.34
2019-01-03T01:05:56.766Z,2.34
2019-01-03T01:08:45.242Z,2.36
2019-01-03T01:14:23.859Z,2.31
2019-01-03T01:17:12.371Z,2.28
2019-01-03T01:20:01.005Z,2.29
2019-01-03T01:22:49.776Z,2.33
2019-01-03T01:25:39.840Z,2.38
2019-01-03T01:28:28.598Z,2.46
2019-01-03T01:31:17.249Z,2.51
2019-01-03T01:37:02.008Z,2.55
2019-01-03T01:42:31.334Z,2.44
2019-01-03T02:00:10.056Z,2.65
2019-01-03T02:02:58.829Z,2.63
2019-01-03T02:05:48.228Z,2.63
2019-01-03T02:11:32.338Z,2.60
2019-01-03T02:14:21.944Z,2.61
2019-01-03T02:17:10.753Z,2.63
2019-01-03T02:19:59.229Z,2.64
2019-01-03T02:22:48.225Z,2.65
2019-01-03T02:25:36.949Z,2.67
2019-01-03T02:31:04.161Z,2.71
2019-01-03T02:33:52.938Z,2.73
2019-01-03T02:39:21.869Z,2.71
2019-01-03T02:42:10.578Z,2.70
2019-01-03T02:50:34.167Z,2.74
2019-01-03T02:53:22.919Z,2.76
2019-01-03T02:56:13.073Z,2.75
2019-01-03T02:59:01.840Z,2.69
2019-01-03T03:01:50.308Z,2.70
2019-01-03T03:04:38.963Z,2.74
2019-01-03T03:07:27.700Z,2.76
2019-01-03T03:12:55.167Z,2.72
2019-01-03T03:15:39.248Z,2.73
2019-01-03T03:18:48.946Z,2.71
2019-01-03T03:21:37.383Z,2.71
2019-01-03T03:24:26.098Z,2.72
2019-01-03T03:27:14.554Z,2.73
2019-01-03T03:32:44.125Z,2.78
2019-01-03T03:38:28.395Z,2.79
2019-01-03T03:41:16.995Z,2.78
2019-01-03T03:46:48.511Z,2.84
2019-01-03T03:49:37.413Z,2.86
2019-01-03T03:52:26.170Z,2.86
2019-01-03T03:55:14.639Z,2.87
2019-01-03T04:19:01.766Z,2.85
2019-01-03T04:21:50.346Z,2.84
2019-01-03T04:24:39.114Z,2.86
2019-01-03T04:30:19.247Z,2.89
2019-01-03T04:33:07.938Z,2.93
2019-01-03T04:35:56.419Z,2.98
2019-01-03T04:38:45.103Z,3.01
2019-01-03T04:41:33.800Z,3.03
2019-01-03T04:44:22.523Z,3.04
2019-01-03T04:47:11.197Z,3.07
2019-01-03T04:50:00.698Z,3.11
2019-01-03T04:52:49.518Z,3.13
2019-01-03T04:55:38.231Z,3.13
2019-01-03T04:58:47.843Z,3.15
2019-01-03T05:02:15.051Z,3.17
2019-01-03T05:05:03.574Z,3.18
2019-01-03T05:07:52.314Z,3.18
2019-01-03T05:10:41.079Z,3.19
2019-01-03T05:13:29.530Z,3.23
2019-01-03T05:16:18.539Z,3.25
2019-01-03T05:19:07.269Z,3.25
2019-01-03T05:21:56.064Z,3.26
2019-01-03T05:24:44.609Z,3.30
2019-01-03T05:27:33.623Z,3.30
2019-01-03T05:30:24.266Z,3.33
2019-01-03T05:33:12.722Z,3.35
2019-01-03T05:36:03.129Z,3.36
2019-01-03T05:56:31.312Z,3.42
2019-01-03T05:59:19.787Z,3.52
2019-01-03T06:02:08.297Z,3.57
2019-01-03T06:10:42.399Z,3.59
2019-01-03T06:13:31.094Z,3.59
2019-01-03T06:19:01.911Z,3.61
2019-01-03T06:21:50.689Z,3.74
2019-01-03T06:27:40.603Z,3.90
2019-01-03T06:30:29.481Z,3.97
2019-01-03T06:33:18.254Z,3.93
2019-01-03T06:36:06.705Z,3.87
2019-01-03T06:38:55.466Z,3.87
2019-01-03T06:41:44.225Z,3.87
2019-01-03T06:44:33.372Z,3.85
2019-01-03T06:47:22.818Z,3.82
2019-01-03T06:50:24.385Z,3.77
2019-01-03T06:53:25.772Z,3.84
2019-01-03T06:56:12.397Z,3.84
2019-01-03T06:58:55.351Z,3.78
2019-01-03T07:04:59.639Z,3.78
2019-01-03T07:08:01.595Z,3.82
2019-01-03T07:10:51.016Z,3.85
2019-01-03T07:13:40.861Z,3.86
2019-01-03T07:16:24.572Z,3.81
2019-01-03T07:19:13.333Z,3.85
2019-01-03T07:24:42.957Z,3.83
2019-01-03T07:30:27.657Z,3.74
2019-01-03T07:36:13.294Z,3.78
2019-01-03T07:44:38.562Z,4.03
2019-01-03T07:47:27.027Z,4.18
2019-01-03T07:56:01.906Z,4.20
2019-01-03T07:58:50.907Z,4.13
2019-01-03T08:01:59.000Z,4.06
2019-01-03T08:04:49.033Z,4.06
2019-01-03T08:07:37.822Z,4.10
2019-01-03T08:10:26.583Z,4.17
2019-01-03T08:13:15.302Z,4.18
2019-01-03T08:16:04.251Z,4.25
2019-01-03T08:24:29.902Z,4.50
2019-01-03T08:27:18.664Z,4.43
2019-01-03T08:30:07.146Z,4.35
2019-01-03T08:32:55.970Z,4.34
2019-01-03T08:38:40.583Z,4.41
2019-01-03T08:44:19.052Z,4.52
2019-01-03T08:47:07.785Z,4.50
2019-01-03T08:53:01.229Z,4.64
2019-01-03T08:59:17.600Z,4.80
2019-01-03T09:02:00.940Z,4.89
2019-01-03T09:07:51.408Z,5.11
2019-01-03T09:10:52.249Z,5.33
2019-01-03T09:13:54.125Z,5.34
2019-01-03T09:16:37.849Z,5.19
2019-01-03T09:22:35.146Z,5.18
2019-01-03T09:25:44.836Z,5.18
2019-01-03T09:28:33.320Z,5.35
2019-01-03T09:31:22.068Z,5.46
2019-01-03T09:34:10.913Z,5.42
2019-01-03T09:36:59.369Z,5.39
2019-01-03T09:39:47.903Z,5.34
2019-01-03T09:42:36.591Z,5.29
2019-01-03T09:45:26.854Z,5.26
2019-01-03T09:47:56.217Z,5.27
2019-01-03T09:50:25.743Z,5.41
2019-01-03T09:52:55.100Z,5.60
2019-01-03T09:55:24.476Z,6.44
2019-01-03T09:58:06.043Z,7.88
2019-01-03T10:00:35.386Z,7.88
2019-01-03T10:03:04.756Z,7.46
2019-01-03T10:05:34.117Z,7.46
2019-01-03T10:08:03.742Z,7.16
2019-01-03T10:10:33.378Z,6.89
2019-01-03T10:13:03.259Z,6.68
2019-01-03T10:15:33.204Z,6.42
2019-01-03T10:18:23.780Z,6.19
2019-01-03T10:20:53.121Z,6.00
2019-01-03T10:23:22.745Z,5.76
2019-01-03T10:25:52.173Z,5.64
2019-01-03T10:28:40.923Z,5.69
2019-01-03T10:31:11.340Z,5.75
2019-01-03T10:34:00.408Z,5.75
2019-01-03T10:36:30.360Z,5.73
2019-01-03T10:38:59.931Z,5.76
2019-01-03T10:41:30.252Z,5.81
2019-01-03T10:44:00.094Z,5.89
2019-01-03T10:46:30.242Z,5.89
2019-01-03T10:48:59.898Z,5.92
2019-01-03T10:51:30.341Z,5.95
2019-01-03T10:54:00.030Z,5.97
2019-01-03T10:56:30.363Z,5.99
2019-01-03T10:58:59.908Z,5.99
2019-01-03T11:01:30.237Z,6.01
2019-01-03T11:03:59.583Z,5.89
2019-01-03T11:06:30.382Z,5.90
2019-01-03T11:09:00.055Z,5.95
2019-01-03T11:11:30.273Z,6.00
2019-01-03T11:13:59.917Z,6.03
2019-01-03T11:16:30.382Z,6.07
2019-01-03T11:19:00.066Z,6.05
2019-01-03T11:21:30.400Z,6.08
2019-01-03T11:24:00.046Z,6.13
2019-01-03T11:26:30.328Z,6.18
2019-01-03T11:29:00.048Z,6.16
2019-01-03T11:31:30.348Z,6.13
2019-01-03T11:33:59.705Z,6.07
2019-01-03T11:36:30.508Z,6.05
2019-01-03T11:39:00.010Z,6.10
2019-01-03T11:41:30.363Z,6.08
2019-01-03T11:44:00.053Z,6.09
2019-01-03T11:46:30.380Z,6.09
2019-01-03T11:49:00.015Z,6.04
2019-01-03T11:51:30.462Z,5.96
2019-01-03T11:57:45.925Z,5.87
2019-01-03T12:00:15.283Z,5.91
2019-01-03T12:02:44.621Z,5.97
2019-01-03T12:05:14.517Z,5.99
2019-01-03T12:07:44.437Z,6.04
2019-01-03T12:10:14.073Z,6.08
2019-01-03T12:12:43.411Z,6.16
2019-01-03T12:15:13.035Z,6.25
2019-01-03T12:17:42.659Z,6.30
2019-01-03T12:20:12.578Z,6.30
2019-01-03T12:22:42.207Z,6.27
2019-01-03T12:25:11.547Z,6.30
2019-01-03T12:27:41.433Z,6.36
2019-01-03T12:30:11.060Z,6.46
2019-01-03T12:32:40.451Z,6.54
2019-01-03T12:37:53.581Z,6.58
2019-01-03T12:40:35.649Z,6.64
2019-01-03T12:43:17.577Z,6.64
2019-01-03T12:45:59.581Z,6.70
2019-01-03T12:48:30.542Z,6.78
2019-01-03T12:51:00.240Z,6.90
2019-01-03T12:53:30.660Z,6.96
2019-01-03T12:56:01.649Z,6.90
2019-01-03T12:58:30.970Z,6.90
2019-01-03T13:01:00.320Z,6.95
2019-01-03T13:03:30.542Z,7.10
2019-01-03T13:06:00.199Z,7.26
2019-01-03T13:08:30.628Z,7.29
2019-01-03T13:11:12.680Z,7.08
2019-01-03T13:13:43.183Z,7.08
2019-01-03T13:16:12.600Z,7.03
2019-01-03T13:19:01.903Z,7.03
2019-01-03T13:24:25.499Z,7.04
2019-01-03T13:26:54.854Z,6.98
2019-01-03T13:29:45.174Z,6.94
2019-01-03T13:32:14.525Z,6.93
2019-01-03T13:34:51.322Z,6.89
2019-01-03T13:37:26.484Z,6.89
2019-01-03T13:39:55.812Z,6.89
2019-01-03T13:42:25.313Z,6.86
2019-01-03T13:44:54.640Z,6.85
2019-01-03T13:47:24.278Z,6.86
2019-01-03T13:49:53.608Z,6.88
2019-01-03T13:52:22.971Z,6.89
2019-01-03T13:54:52.504Z,6.85
2019-01-03T13:57:21.841Z,6.87
2019-01-03T13:59:51.485Z,6.83
2019-01-03T14:02:20.813Z,6.77
2019-01-03T14:04:50.343Z,6.77
2019-01-03T14:07:19.686Z,6.75
2019-01-03T14:10:01.535Z,6.76
2019-01-03T14:12:30.953Z,6.76
2019-01-03T14:15:19.750Z,6.77
2019-01-03T14:17:49.464Z,6.77
2019-01-03T14:20:18.792Z,6.78
2019-01-03T14:23:01.106Z,6.78
2019-01-03T14:25:43.559Z,6.78
2019-01-03T14:28:12.968Z,6.73
2019-01-03T14:30:42.918Z,6.69
2019-01-03T14:33:24.563Z,6.64
2019-01-03T14:36:06.255Z,6.59
2019-01-03T14:38:48.166Z,6.57
2019-01-03T14:41:29.963Z,6.52
2019-01-03T14:43:59.717Z,6.45
2019-01-03T14:46:29.088Z,6.39
2019-01-03T14:48:58.597Z,6.35
2019-01-03T14:51:27.971Z,6.35
2019-01-03T14:53:57.484Z,6.30
2019-01-03T14:56:26.832Z,6.28
2019-01-03T14:58:56.472Z,6.25
2019-01-03T15:01:25.814Z,6.21
2019-01-03T15:03:55.760Z,6.19
2019-01-03T15:06:25.365Z,6.16
2019-01-03T15:08:54.704Z,6.12
2019-01-03T15:11:24.029Z,6.08
2019-01-03T15:13:53.889Z,6.03
2019-01-03T15:16:23.509Z,5.97
2019-01-03T15:18:52.883Z,5.91
2019-01-03T15:21:22.509Z,5.84
2019-01-03T15:23:52.087Z,5.79
2019-01-03T15:26:42.452Z,5.74
2019-01-03T15:29:11.805Z,5.70
2019-01-03T15:31:41.429Z,5.67
2019-01-03T15:34:10.779Z,5.64
2019-01-03T15:39:28.575Z,5.59
2019-01-03T15:41:57.908Z,5.53
2019-01-03T15:44:27.795Z,5.47
2019-01-03T15:46:57.412Z,5.39
2019-01-03T15:49:39.555Z,5.35
2019-01-03T15:52:21.112Z,5.33
2019-01-03T15:55:02.959Z,5.30
2019-01-03T15:57:45.023Z,5.25
2019-01-03T16:00:27.448Z,5.18
2019-01-03T16:02:56.836Z,5.14
2019-01-03T16:05:26.180Z,5.08
2019-01-03T16:08:08.101Z,5.03
2019-01-03T16:10:50.070Z,4.97
2019-01-03T16:13:32.031Z,4.97
2019-01-03T16:16:13.552Z,4.92
2019-01-03T16:18:43.208Z,4.88
2019-01-03T16:21:12.869Z,4.82
2019-01-03T16:23:42.256Z,4.78
2019-01-03T16:26:11.695Z,4.74
2019-01-03T16:28:41.064Z,4.69
2019-01-03T16:31:10.693Z,4.65
2019-01-03T16:33:40.644Z,4.62
2019-01-03T16:36:09.976Z,4.58
2019-01-03T16:38:39.616Z,4.56
2019-01-03T16:41:09.110Z,4.54
2019-01-03T16:43:39.285Z,4.52
2019-01-03T16:46:08.928Z,4.52
2019-01-03T16:48:38.521Z,4.50
2019-01-03T16:51:07.868Z,4.46
2019-01-03T16:53:37.210Z,4.43
2019-01-03T16:56:06.804Z,4.41
2019-01-03T16:58:36.552Z,4.39
2019-01-03T17:01:06.036Z,4.34
2019-01-03T17:03:35.378Z,4.30
2019-01-03T17:06:04.920Z,4.27
2019-01-03T17:08:36.041Z,4.21
2019-01-03T17:11:05.690Z,4.18
2019-01-03T17:13:35.038Z,4.14
2019-01-03T17:16:04.380Z,4.12
2019-01-03T17:18:34.001Z,4.09
2019-01-03T17:21:03.351Z,4.06
2019-01-03T17:23:32.963Z,4.01
2019-01-03T17:26:02.305Z,4.00
2019-01-03T17:28:31.879Z,3.98
2019-01-03T17:31:01.220Z,3.94
2019-01-03T17:33:31.261Z,3.88
2019-01-03T17:36:01.017Z,3.81
2019-01-03T17:38:31.260Z,3.76
2019-01-03T17:41:00.941Z,3.73
2019-01-03T17:43:31.313Z,3.72
2019-01-03T17:46:00.958Z,3.70
2019-01-03T17:48:31.389Z,3.68
2019-01-03T17:51:13.592Z,3.67
2019-01-03T17:53:55.518Z,3.66
2019-01-03T17:56:37.735Z,3.66
2019-01-03T17:59:19.486Z,3.65
2019-01-03T18:01:59.197Z,3.62
2019-01-03T18:04:28.546Z,3.57
2019-01-03T18:06:58.114Z,3.54
2019-01-03T18:09:29.105Z,3.50
2019-01-03T18:11:58.455Z,3.47
2019-01-03T18:14:27.970Z,3.43
2019-01-03T18:16:57.307Z,3.41
2019-01-03T18:19:26.935Z,3.36
2019-01-03T18:21:56.266Z,3.33
2019-01-03T18:24:25.889Z,3.28
2019-01-03T18:26:55.231Z,3.22
2019-01-03T18:29:24.852Z,3.15
2019-01-03T18:31:54.205Z,3.11
2019-01-03T18:34:23.767Z,3.06
2019-01-03T18:36:53.148Z,3.02
2019-01-03T18:39:22.527Z,2.97
2019-01-03T18:41:52.007Z,2.95
2019-01-03T18:44:21.388Z,2.92
2019-01-03T18:46:51.066Z,2.89
2019-01-03T18:49:20.435Z,2.88
2019-01-03T18:51:50.056Z,2.87
2019-01-03T18:54:19.770Z,2.84
2019-01-03T18:56:49.104Z,2.82
2019-01-03T18:59:18.452Z,2.81
2019-01-03T19:01:48.388Z,2.77
2019-01-03T19:04:17.719Z,2.74
2019-01-03T19:06:47.606Z,2.71
2019-01-03T19:09:17.169Z,2.68
2019-01-03T19:11:46.492Z,2.66
2019-01-03T19:14:16.441Z,2.61
2019-01-03T19:16:46.357Z,2.53
2019-01-03T19:19:15.737Z,2.51
2019-01-03T19:21:45.330Z,2.50
2019-01-03T19:24:14.755Z,2.50
2019-01-03T19:29:46.960Z,2.48
2019-01-03T19:32:16.322Z,2.49
2019-01-03T19:34:45.661Z,2.49
2019-01-03T19:37:15.022Z,2.48
2019-01-03T19:39:54.587Z,2.44
2019-01-03T19:42:24.522Z,2.44
2019-01-03T19:44:53.857Z,2.44
2019-01-03T19:47:23.469Z,2.41
2019-01-03T19:49:53.045Z,2.41
2019-01-03T19:52:22.630Z,2.40
2019-01-03T19:54:51.987Z,2.38
2019-01-03T19:57:21.415Z,2.37
2019-01-03T19:59:50.777Z,2.37
2019-01-03T20:02:20.418Z,2.36
2019-01-03T20:04:49.761Z,2.36
2019-01-03T20:07:19.342Z,2.31
2019-01-03T20:09:48.719Z,2.28
2019-01-03T20:12:18.395Z,2.25
2019-01-03T20:14:47.751Z,2.23
2019-01-03T20:17:17.380Z,2.25
2019-01-03T20:19:47.023Z,2.23
2019-01-03T20:22:16.602Z,2.23
2019-01-03T20:24:45.952Z,2.21
2019-01-03T20:27:15.471Z,2.20
2019-01-03T20:29:44.833Z,2.21
2019-01-03T20:32:14.469Z,2.20
2019-01-03T20:34:44.119Z,2.20
2019-01-03T20:37:13.709Z,2.21
2019-01-03T20:39:43.114Z,2.20
2019-01-03T20:42:12.596Z,2.20
2019-01-03T20:44:41.975Z,2.20
2019-01-03T20:47:11.612Z,2.18
2019-01-03T20:49:41.321Z,2.18
2019-01-03T20:52:12.573Z,2.15
2019-01-03T20:54:41.938Z,2.13
2019-01-03T20:57:11.547Z,2.12
2019-01-03T20:59:42.827Z,2.09
2019-01-03T21:02:12.464Z,2.07
2019-01-03T21:04:41.826Z,2.05
2019-01-03T21:07:11.166Z,2.04
2019-01-03T21:09:40.565Z,2.02
2019-01-03T21:12:09.901Z,2.02
2019-01-03T21:14:39.260Z,1.97
2019-01-03T21:17:08.797Z,2.00
2019-01-03T21:19:38.143Z,2.02
2019-01-03T21:22:07.720Z,2.01
2019-01-03T21:24:37.052Z,2.01
2019-01-03T21:27:06.657Z,1.99
2019-01-03T21:29:36.084Z,1.97
2019-01-03T21:32:05.989Z,1.95
2019-01-03T21:34:35.645Z,1.95
2019-01-03T21:37:05.050Z,1.93
2019-01-03T21:39:34.694Z,1.93
2019-01-03T21:42:04.040Z,1.92
2019-01-03T21:44:52.658Z,1.92
2019-01-03T21:47:21.992Z,1.92
2019-01-03T21:49:51.344Z,1.91
2019-01-03T21:52:20.803Z,1.90
2019-01-03T21:54:50.216Z,1.91
2019-01-03T21:57:19.785Z,1.89
2019-01-03T22:03:03.179Z,1.90
2019-01-03T22:05:45.377Z,1.90
2019-01-03T22:08:27.355Z,1.90
2019-01-03T22:11:09.178Z,1.88
2019-01-03T22:13:38.881Z,1.87
2019-01-03T22:16:27.573Z,1.82
2019-01-03T22:19:08.803Z,1.82
2019-01-03T22:21:51.061Z,1.83
2019-01-03T22:24:33.117Z,1.79
2019-01-03T22:27:15.096Z,1.82
2019-01-03T22:29:58.498Z,1.84
2019-01-03T22:32:41.405Z,1.84
2019-01-03T22:35:23.788Z,1.85
2019-01-03T22:38:05.733Z,1.87
2019-01-03T22:40:48.038Z,1.87
2019-01-03T22:43:29.574Z,1.86
2019-01-03T22:46:11.074Z,1.86
2019-01-03T22:51:45.353Z,1.82
2019-01-03T22:54:27.066Z,1.78
2019-01-03T22:57:08.769Z,1.74
2019-01-03T22:59:50.995Z,1.74
2019-01-03T23:02:32.853Z,1.74
2019-01-03T23:05:14.410Z,1.72
2019-01-03T23:07:56.569Z,1.71
2019-01-03T23:10:26.114Z,1.69
2019-01-03T23:12:55.788Z,1.65
2019-01-03T23:15:25.129Z,1.64
2019-01-03T23:17:54.806Z,1.62
2019-01-03T23:20:24.154Z,1.60
2019-01-03T23:22:53.521Z,1.58
2019-01-03T23:25:22.983Z,1.57
2019-01-03T23:27:52.330Z,1.57
2019-01-03T23:30:21.974Z,1.60
2019-01-03T23:32:51.312Z,1.62
2019-01-03T23:35:20.955Z,1.62
2019-01-03T23:38:11.287Z,1.63
2019-01-03T23:40:40.854Z,1.60
2019-01-03T23:43:10.209Z,1.60
2019-01-03T23:45:39.858Z,1.61
2019-01-03T23:48:09.221Z,1.60
2019-01-03T23:53:19.258Z,1.58
2019-01-03T23:56:09.532Z,1.56
2019-01-03T23:58:39.176Z,1.56
